Terminal Aerodrome Forecast
Issued by NWS Wilmington, OH

Current Version | Previous Version | Text Only | Print | Product List | Glossary Off
Versions: 1 2 3 4 5 6 7 8 9 10 11 12 13 14 15 16 17 18 19 20 21 22 23 24 25 26 27 28

000
FTUS41 KILN 041100 RRA
TAFCMH
TAF
KCMH 041142Z 0412/0512 30008KT P6SM SCT015 OVC050
      TEMPO 0412/0414 5SM -RASN BR BKN015
     FM041400 31007KT P6SM SCT022 OVC060
      TEMPO 0417/0421 BKN022
     FM042100 32011KT 2SM -SN OVC015
     FM050300 33010KT P6SM SCT018 OVC120=

USA.gov is the U.S. government's official web portal to all federal, state and local government web resources and services.